Latest Coastal Weather Observations for Cape Otway

IDT60701

Issued at 12:32 am EST Saturday 23 May 2015 (issued every 10 minutes, with the page automatically refreshed every 10 minutes)

About coastal observations | Map of coastal stations | Coastal observations for TAS | Marine services | Other Formats
Station Details ID: 090015 Name: CAPE OTWAY LIGHTHOUSE Lat: -38.86 Lon: 143.51 Height: 82.0 m
Data from the previous 72 hours. | See also: Recent months at Cape Otway
Date/Time
EST
Temp

°C
Wind Pressure Rain
since 9am
mm
Weather Cloud Vis
km
Sea
Height
m
Swell
Dir
 
Speed
knots
Gust
knots
hPa Trend Height
m
Period
s
Dir
23/12:30am 10.9 SSW 4 8 1032.7 - 0.0 - - - - - - -
23/12:00am 10.9 SSW 5 11 1032.8 - 0.0 - - - - - - -
 
Date/Time
EST
Temp

°C
Wind Pressure Rain
since 9am
mm
Weather Cloud Vis
km
Sea
Height
m
Swell
Dir
 
Speed
knots
Gust
knots
hPa Trend Height
m
Period
s
Dir
22/11:30pm 11.2 SSW 8 13 1032.8 - 0.0 - - - - - - -
22/11:00pm 11.1 S 5 10 1032.9 - 0.0 - - - - - - -
22/10:30pm 11.3 SW 6 9 1032.9 - 0.0 - - - - - - -
22/10:00pm 11.2 SSW 10 14 1033.0 - 0.0 - - - - - - -
22/09:30pm 11.1 SSW 5 7 1032.9 - 0.0 - - - - - - -
22/09:00pm 11.3 SSW 7 11 1032.9 - 0.0 - - - - - - -
22/08:30pm 11.0 SW 7 10 1032.8 - 0.0 - - - - - - -
22/08:00pm 11.3 SW 9 13 1032.5 - 0.0 - - - - - - -
22/07:30pm 11.2 SSW 8 12 1032.5 - 0.0 - - - - - - -
22/07:00pm 11.1 SW 6 10 1032.3 - 0.0 - - - - - - -
22/06:30pm 11.3 SSW 9 15 1032.1 - 0.0 - - - - - - -
22/06:00pm 11.4 SW 5 9 1031.9 - 0.0 - - - - - - -
22/05:30pm 11.2 SSW 10 15 1031.7 - 0.0 - - - - - - -
22/05:00pm 11.2 SSW 8 13 1031.6 - 0.0 - - - - - - -
22/04:30pm 11.2 SW 8 11 1031.6 - 0.0 - - - - - - -
22/04:00pm 11.3 SSW 6 8 1031.7 - 0.0 - - - - - - -
22/03:30pm 11.4 SSW 8 15 1031.5 - 0.0 - - - - - - -
22/03:00pm 11.4 SW 6 13 1031.4 - 0.0 - - - - - - -
22/02:30pm 11.5 SW 7 11 1031.2 - 0.0 - - - - - - -
22/02:00pm 11.5 SW 6 9 1031.2 - 0.0 - - - - - - -
22/01:30pm 11.6 SW 8 13 1031.0 - 0.0 - - - - - - -
22/01:00pm 11.7 SW 8 13 1031.0 - 0.0 - - - - - - -
22/12:30pm 11.9 SW 5 8 1031.1 - 0.0 - - - - - - -
22/12:00pm 12.0 SW 5 7 1031.4 - 0.0 - - - - - - -
22/11:30am 11.9 SW 7 12 1031.6 - 0.0 - - - - - - -
22/11:00am 11.8 SW 6 10 1031.6 - 0.0 - - - - - - -
22/10:30am 11.7 WSW 6 11 1031.5 - 0.0 - - - - - - -
22/10:00am 11.8 SW 7 13 1031.3 - 0.0 - - - - - - -
22/09:30am 11.9 W 5 9 1031.1 - 0.0 - - - - - - -
22/09:00am 11.8 SW 7 15 1031.0 - 0.2 - - - - - - -
22/08:30am 11.9 SSW 5 9 1030.9 - 0.2 - - - - - - -
22/08:00am 12.0 SW 5 8 1030.6 - 0.2 - - - - - - -
22/07:30am 11.9 SW 6 9 1030.3 - 0.2 - - - - - - -
22/07:00am 11.9 SW 6 9 1030.1 - 0.2 - - - - - - -
22/06:30am 11.9 SSW 9 15 1029.9 - 0.2 - - - - - - -
22/06:00am 12.1 SW 7 11 1029.3 - 0.2 - - - - - - -
22/05:30am 12.0 SW 7 10 1029.1 - 0.2 - - - - - - -
22/05:00am 12.0 W 5 10 1028.9 - 0.2 - - - - - - -
22/04:30am 12.1 WSW 5 11 1028.8 - 0.2 - - - - - - -
22/04:00am 12.1 W 5 9 1028.8 - 0.2 - - - - - - -
22/03:30am 12.2 WSW 5 9 1028.7 - 0.2 - - - - - - -
22/03:00am 12.3 WSW 5 9 1028.6 - 0.2 - - - - - - -
22/02:30am 12.3 SW 5 10 1028.5 - 0.2 - - - - - - -
22/02:00am 12.2 WSW 4 7 1028.4 - 0.2 - - - - - - -
22/01:30am 12.3 SSW 6 12 1028.3 - 0.2 - - - - - - -
22/01:00am 12.4 SW 5 9 1028.1 - 0.2 - - - - - - -
22/12:30am 12.5 WSW 6 12 1028.3 - 0.2 - - - - - - -
22/12:00am 12.5 WSW 6 11 1028.1 - 0.2 - - - - - - -
 
Date/Time
EST
Temp

°C
Wind Pressure Rain
since 9am
mm
Weather Cloud Vis
km
Sea
Height
m
Swell
Dir
 
Speed
knots
Gust
knots
hPa Trend Height
m
Period
s
Dir
21/11:30pm 12.5 W 6 11 1028.0 - 0.2 - - - - - - -
21/11:00pm 12.5 W 6 10 1028.0 - 0.2 - - - - - - -
21/10:30pm 12.4 WSW 7 11 1027.8 - 0.2 - - - - - - -
21/10:00pm 12.5 WSW 7 16 1027.6 - 0.2 - - - - - - -
21/09:30pm 12.4 W 6 13 1027.6 - 0.2 - - - - - - -
21/09:00pm 12.4 WSW 7 10 1027.5 - 0.2 - - - - - - -
21/08:30pm 12.5 W 6 10 1027.2 - 0.2 - - - - - - -
21/08:00pm 12.3 WSW 6 10 1027.1 - 0.2 - - - - - - -
21/07:30pm 12.2 W 6 14 1027.0 - 0.2 - - - - - - -
21/07:00pm 12.3 SW 5 10 1026.6 - 0.2 - - - - - - -
21/06:30pm 12.6 WSW 6 8 1026.4 - 0.2 - - - - - - -
21/06:00pm 12.6 WSW 6 11 1026.1 - 0.2 - - - - - - -
21/05:30pm 12.2 SW 6 10 1025.7 - 0.2 - - - - - - -
21/05:00pm 12.3 WSW 5 8 1025.5 - 0.2 - - - - - - -
21/04:30pm 12.4 SW 5 8 1025.3 - 0.2 - - - - - - -
21/04:00pm 12.7 SW 6 9 1025.1 - 0.2 - - - - - - -
21/03:30pm 13.2 SW 8 11 1024.7 - 0.2 - - - - - - -
21/03:00pm 12.9 WSW 6 9 1024.7 - 0.2 - - - - - - -
21/02:30pm 13.7 SW 5 8 1024.5 - 0.2 - - - - - - -
21/02:00pm 13.3 SW 5 8 1024.5 - 0.2 - - - - - - -
21/01:30pm 12.6 SSW 5 9 1024.5 - 0.2 - - - - - - -
21/01:00pm 12.9 SW 5 8 1024.6 - 0.2 - - - - - - -
21/12:30pm 12.9 SW 5 8 1024.9 - 0.2 - - - - - - -
21/12:00pm 11.9 SW 7 12 1025.0 - 0.2 - - - - - - -
21/11:30am 12.6 S 5 9 1025.2 - 0.2 - - - - - - -
21/11:00am 11.8 S 6 11 1025.3 - 0.2 - - - - - - -
21/10:30am 11.0 SSE 7 12 1025.2 - 0.2 - - - - - - -
21/10:00am 11.1 WSW 5 9 1024.9 - 0.0 - - - - - - -
21/09:30am 11.4 SSW 5 8 1024.6 - 0.0 - - - - - - -
21/09:00am 11.0 SW 7 10 1024.4 - 3.0 - - - - - - -
21/08:30am 10.3 SSW 4 8 1024.3 - 3.0 - - - - - - -
21/08:00am 10.6 SSW 5 11 1023.9 - 3.0 - - - - - - -
21/07:30am 10.1 SW 6 11 1023.6 - 3.0 - - - - - - -
21/07:00am 10.9 SSW 9 15 1023.1 - 2.8 - - - - - - -
21/06:30am 10.8 SW 12 22 1022.8 - 2.8 - - - - - - -
21/06:00am 11.5 SSW 10 16 1022.4 - 2.8 - - - - - - -
21/05:30am 11.4 SSW 10 13 1022.1 - 2.8 - - - - - - -
21/05:00am 11.7 SSW 18 23 1021.9 - 2.8 - - - - - - -
21/04:30am 11.8 SSW 13 18 1021.7 - 2.8 - - - - - - -
21/04:00am 11.6 SSW 13 17 1021.5 - 2.8 - - - - - - -
21/03:30am 11.5 SSW 16 21 1021.5 - 2.8 - - - - - - -
21/03:00am 11.7 SSW 15 22 1021.3 - 2.8 - - - - - - -
21/02:30am 11.4 SSW 16 23 1021.4 - 2.8 - - - - - - -
21/02:00am 11.6 SSW 13 18 1021.2 - 2.8 - - - - - - -
21/01:30am 11.4 SSW 14 21 1021.2 - 2.8 - - - - - - -
21/01:00am 11.2 SSW 12 20 1021.2 - 2.8 - - - - - - -
21/12:30am 11.1 SSW 13 19 1021.0 - 2.8 - - - - - - -
21/12:00am 11.0 SSW 16 23 1021.1 - 2.8 - - - - - - -
 
Date/Time
EST
Temp

°C
Wind Pressure Rain
since 9am
mm
Weather Cloud Vis
km
Sea
Height
m
Swell
Dir
 
Speed
knots
Gust
knots
hPa Trend Height
m
Period
s
Dir
20/11:31pm 11.1 SSW 15 25 1021.0 - 2.8 - - - - - - -
20/11:30pm 11.2 SSW 16 25 1021.0 - 2.8 - - - - - - -
20/11:00pm 11.0 SSW 16 24 1020.7 - 2.8 - - - - - - -
20/10:30pm 11.0 SSW 14 21 1020.6 - 2.8 - - - - - - -
20/10:00pm 10.9 SSW 15 25 1020.5 - 2.8 - - - - - - -
20/09:59pm 10.8 SSW 15 25 1020.5 - 2.8 - - - - - - -
20/09:30pm 10.8 SSW 17 23 1020.1 - 2.8 - - - - - - -
20/09:00pm 11.1 SSW 15 24 1019.5 - 2.8 - - - - - - -
20/08:30pm 11.1 SSW 17 24 1019.1 - 2.8 - - - - - - -
20/08:03pm 10.5 SSW 15 25 1018.8 - 2.6 - - - - - - -
20/08:00pm 10.4 SSW 17 25 1018.8 - 2.6 - - - - - - -
20/07:43pm 10.6 SSW 17 27 1018.6 - 2.6 - - - - - - -
20/07:30pm 10.8 SSW 17 25 1018.3 - 2.4 - - - - - - -
20/07:00pm 10.9 SSW 15 21 1017.7 - 2.2 - - - - - - -
20/06:30pm 11.1 SSW 23 31 1017.1 - 2.2 - - - - - - -
20/06:00pm 11.0 SSW 21 32 1016.5 - 2.2 - - - - - - -
20/05:42pm 10.9 SSW 24 34 1016.0 - 2.2 - - - - - - -
20/05:30pm 10.9 SSW 27 33 1015.8 - 2.2 - - - - - - -
20/05:00pm 10.9 SSW 23 33 1014.9 - 2.2 - - - - - - -
20/04:30pm 11.0 SSW 26 36 1014.2 - 2.2 - - - - - - -
20/04:08pm 11.4 SSW 25 35 1013.8 - 2.2 - - - - - - -
20/04:00pm 11.5 SSW 25 33 1013.6 - 2.2 - - - - - - -
20/03:30pm 11.8 SSW 22 34 1012.7 - 2.2 - - - - - - -
20/03:00pm 11.8 SSW 25 35 1012.0 - 2.0 - - - - - - -
20/02:30pm 12.1 SSW 22 35 1011.2 - 1.8 - - - - - - -
20/02:00pm 12.4 SSW 26 36 1010.6 - 1.6 - - - - - - -
20/01:30pm 12.8 SSW 26 38 1010.0 - 1.2 - - - - - - -
20/01:17pm 12.9 SSW 30 40 1009.9 - 0.8 - - - - - - -
20/01:00pm 13.0 SSW 32 40 1009.6 - 0.8 - - - - - - -
20/12:43pm 13.2 SSW 26 36 1009.5 - 0.8 - - - - - - -
20/12:30pm 13.5 SSW 30 39 1009.2 - 0.8 - - - - - - -
20/12:09pm 13.7 SW 25 35 1009.0 - 0.8 - - - - - - -
20/12:00pm 13.9 SW 22 31 1009.0 - 0.8 - - - - - - -
20/11:55am 13.8 SW 19 30 1009.0 - 0.8 - - - - - - -
20/11:30am 15.0 WNW 12 16 1009.1 - 0.0 - - - - - - -
20/11:00am 14.3 WNW 11 18 1009.2 - 0.0 - - - - - - -
20/10:30am 14.3 NW 12 18 1008.8 - 0.0 - - - - - - -
20/10:00am 13.7 NW 12 20 1008.5 - 0.0 - - - - - - -
20/09:30am 13.7 NNW 13 22 1008.3 - 0.0 - - - - - - -
20/09:00am 13.6 NW 14 20 1008.1 - 2.2 - - - - - - -
20/08:30am 13.5 NW 13 21 1007.8 - 2.2 - - - - - - -
20/08:00am 13.4 NNW 11 18 1007.5 - 2.2 - - - - - - -
20/07:30am 13.4 NW 12 19 1007.1 - 2.2 - - - - - - -
20/07:00am 13.3 NNW 12 18 1006.8 - 2.2 - - - - - - -
20/06:30am 13.3 NNW 13 20 1006.4 - 2.2 - - - - - - -
20/06:00am 13.3 NNW 10 16 1006.1 - 2.2 - - - - - - -
20/05:30am 13.4 NNW 11 17 1005.8 - 2.2 - - - - - - -
20/05:00am 14.0 NW 13 21 1005.6 - 2.2 - - - - - - -
20/04:30am 14.1 WNW 18 29 1005.4 - 2.2 - - - - - - -
20/04:19am 13.8 NW 15 26 1005.1 - 2.2 - - - - - - -
20/04:00am 13.9 NW 10 16 1005.2 - 2.2 - - - - - - -
20/03:30am 13.9 NNW 11 16 1005.0 - 2.2 - - - - - - -
20/03:00am 14.0 N 10 15 1004.9 - 2.2 - - - - - - -
20/02:30am 14.1 N 8 12 1005.3 - 1.4 - - - - - - -
20/02:00am 13.9 N 10 15 1005.3 - 1.2 - - - - - - -
20/01:30am 14.0 N 12 17 1005.4 - 0.8 - - - - - - -
20/01:00am 14.0 N 14 22 1005.6 - 0.8 - - - - - - -

Other Formats:

Comma delimited format used in spreadsheet applications
http://www.bom.gov.au/fwo/IDT60701/IDT60701.94842.axf

JavaScript Object Notation format (JSON) in row-major order
http://www.bom.gov.au/fwo/IDT60701/IDT60701.94842.json